Tropical Cyclones
[Index]
Main Index Home Page Stock Weather Photos Extreme Storms Discussion Storm News and Storm Chasing Reports Tropical Cyclones / Hurricanes / Typhoons Weather Data and Links Wild Fires / Bushfires Weather Observation Techniques Weather Picture Catalogue Tornado Pictures and Reports Stock Video Footage and DVDs for sale
Season 1971-1972 Tropical Cyclone FAITH Track Map
Season 1971-1972 Summaries: [BoM-AU] [JTWC-AU] [JTWC-SIO] [JTWC-SPAC] [JTWC-SH]
<<- Previous TC | JTWC 1971-1972 Season | Next TC ->>

click for intensity scale information  Lat/long Grid: Show Hide

 Date Labels: Show Hide

Joint Typhoon Warning Centre Cyclone Data

Name: FAITH
Number: 799 / 7228

10 Apr 1972 12:00 UTC to 23 Apr 1972 18:00 UTC

    date/time    lat    long     hPa   cat  kts
1972-04-10 12   11.0   139.5                  15          
1972-04-10 18   10.9   139.6                  20          
1972-04-11 00   10.9   139.7                  20          
1972-04-11 06   11.0   139.9                  15          
1972-04-11 12   11.1   140.0                  15          
1972-04-11 18   11.3   140.2                  25          
1972-04-12 00   11.5   140.3                  30          
1972-04-12 06   11.8   140.5                  35          
1972-04-12 12   12.1   140.7                  35          
1972-04-12 18   12.4   141.0                  30          
1972-04-13 00   12.7   141.3                  25          
1972-04-13 06   12.9   141.6                  30          
1972-04-13 12   13.0   142.1                  35          
1972-04-13 18   13.0   143.0                  30          
1972-04-14 00   13.0   143.8                  30          
1972-04-14 06   13.2   144.6                  35          
1972-04-14 12   13.3   145.4                  35          
1972-04-14 18   13.5   146.4                  30          
1972-04-15 00   13.7   147.4                  25          
1972-04-15 06   13.9   148.3                  30          
1972-04-15 12   14.1   149.1                  30          
1972-04-15 18   14.2   149.7                  30          
1972-04-16 00   14.2   150.1                  30          
1972-04-16 06   14.2   150.5                  30          
1972-04-16 12   14.1   150.9                  25          
1972-04-16 18   13.8   151.3                  25          
1972-04-17 00   13.3   151.7                  25          
1972-04-17 06   12.7   152.0                  25          
1972-04-17 12   12.1   152.3                  25          
1972-04-17 18   11.8   152.2                  25          
1972-04-18 00   11.6   151.8                  30          
1972-04-18 06   11.4   151.4                  30          
1972-04-18 12   11.4   150.9                  30          
1972-04-18 18   11.5   150.5                  15          
1972-04-19 00   11.5   150.0                  05          
1972-04-19 06   11.6   149.6                              
1972-04-19 12   11.6   149.2                              
1972-04-19 18   11.7   148.8                              
1972-04-20 00   11.7   148.4                              
1972-04-20 06   11.7   148.0                  05          
1972-04-20 12   11.7   147.6                  15          
1972-04-20 18   11.7   147.4                  20          
1972-04-21 00   11.7   146.9                  20          
1972-04-21 06   11.4   146.3                  20          
1972-04-21 12   10.9   145.7                  20          
1972-04-21 18   10.5   145.1                  20          
1972-04-22 00   10.1   144.5                  20          
1972-04-22 06    9.8   143.9                  20          
1972-04-22 12    9.7   143.3                  20          
1972-04-22 18    9.6   142.9                  20          
1972-04-23 00    9.6   142.4                  20          
1972-04-23 06    9.6   141.8                  15          
1972-04-23 12    9.6   141.2                  10          
1972-04-23 18    9.6   140.6                  10          
Winds are 1-min average.

Tropical cyclone tracks developed by Michael Bath using data from the Joint Typhoon Warning Centre Best Tracks and Google Maps.


[Australian Severe Weather index] [Copyright Notice] [Email Contacts] [Search This Site] [Privacy Policy]
Document: tropical_cyclone_faith.htm Updated: 18 September 2016